createdAt,value
2019-01-23T00:00:17.001Z,0
2019-01-23T00:01:15.568Z,0
2019-01-23T00:02:14.100Z,0
2019-01-23T00:03:12.630Z,0
2019-01-23T00:04:11.164Z,0
2019-01-23T00:05:09.876Z,0
2019-01-23T00:06:08.412Z,0
2019-01-23T00:07:07.287Z,0
2019-01-23T00:08:05.971Z,0
2019-01-23T00:09:04.508Z,0
2019-01-23T00:10:03.118Z,0
2019-01-23T00:11:01.826Z,0
2019-01-23T00:12:00.365Z,0
2019-01-23T00:12:58.906Z,0
2019-01-23T00:13:57.731Z,0
2019-01-23T00:14:56.263Z,0
2019-01-23T00:15:54.865Z,0
2019-01-23T00:16:54.015Z,0
2019-01-23T00:17:52.544Z,0
2019-01-23T00:18:51.381Z,0
2019-01-23T00:19:49.936Z,0
2019-01-23T00:20:48.457Z,0
2019-01-23T00:21:47.307Z,0
2019-01-23T00:22:45.943Z,0
2019-01-23T00:23:44.509Z,0
2019-01-23T00:24:43.471Z,0
2019-01-23T00:25:42.031Z,0
2019-01-23T00:26:40.594Z,0
2019-01-23T00:27:39.374Z,0
2019-01-23T00:28:42.290Z,0
2019-01-23T00:29:36.455Z,0
2019-01-23T00:30:35.020Z,0
2019-01-23T00:31:33.552Z,0
2019-01-23T00:32:32.107Z,0
2019-01-23T00:33:30.651Z,0
2019-01-23T00:34:29.516Z,0
2019-01-23T00:35:28.057Z,0
2019-01-23T00:36:26.659Z,0
2019-01-23T00:37:25.441Z,0
2019-01-23T00:38:23.983Z,0
2019-01-23T00:39:22.527Z,0
2019-01-23T00:40:21.104Z,0
2019-01-23T00:41:19.653Z,0
2019-01-23T00:42:18.206Z,0
2019-01-23T00:43:16.740Z,0
2019-01-23T00:44:15.289Z,0
2019-01-23T00:45:13.842Z,0
2019-01-23T00:46:12.396Z,0
2019-01-23T00:47:10.968Z,0
2019-01-23T00:48:09.710Z,0
2019-01-23T00:49:08.271Z,0
2019-01-23T00:50:06.952Z,0
2019-01-23T00:51:05.636Z,0
2019-01-23T00:52:04.187Z,0
2019-01-23T00:53:02.744Z,0
2019-01-23T00:54:01.318Z,0
2019-01-23T00:54:59.885Z,0
2019-01-23T00:55:58.465Z,0
2019-01-23T00:56:57.010Z,0
2019-01-23T00:57:55.605Z,0
2019-01-23T00:58:54.123Z,0
2019-01-23T00:59:52.784Z,0
2019-01-23T01:00:51.593Z,0
2019-01-23T01:01:50.193Z,0
2019-01-23T01:02:48.946Z,0
2019-01-23T01:03:47.478Z,0
2019-01-23T01:04:45.990Z,0
2019-01-23T01:05:44.529Z,0
2019-01-23T01:06:43.103Z,0
2019-01-23T01:07:41.657Z,0
2019-01-23T01:08:40.189Z,0
2019-01-23T01:11:20.218Z,0
2019-01-23T01:12:18.770Z,0
2019-01-23T01:13:17.341Z,0
2019-01-23T01:14:16.024Z,0
2019-01-23T01:15:14.776Z,0
2019-01-23T01:16:13.505Z,0
2019-01-23T01:17:12.030Z,0
2019-01-23T01:18:10.590Z,0
2019-01-23T01:19:09.128Z,0
2019-01-23T01:20:07.734Z,0
2019-01-23T01:21:06.291Z,0
2019-01-23T01:22:04.834Z,0
2019-01-23T01:23:03.478Z,0
2019-01-23T01:24:02.022Z,0
2019-01-23T01:25:00.613Z,0
2019-01-23T01:25:59.103Z,0
2019-01-23T01:26:57.852Z,0
2019-01-23T01:27:56.385Z,0
2019-01-23T01:28:56.024Z,0
2019-01-23T01:29:53.636Z,0
2019-01-23T01:30:52.188Z,0
2019-01-23T01:31:50.967Z,0
2019-01-23T01:32:49.590Z,0
2019-01-23T01:33:48.099Z,0
2019-01-23T01:34:46.648Z,0
2019-01-23T01:35:45.581Z,0
2019-01-23T01:36:44.121Z,0
2019-01-23T01:37:42.686Z,0
2019-01-23T01:38:41.444Z,0
2019-01-23T01:39:39.945Z,0
2019-01-23T01:40:38.500Z,0
2019-01-23T01:41:37.038Z,0
2019-01-23T01:42:35.732Z,0
2019-01-23T01:43:34.239Z,0
2019-01-23T01:44:32.799Z,0
2019-01-23T01:45:31.629Z,0
2019-01-23T01:46:30.134Z,0
2019-01-23T01:47:28.792Z,0
2019-01-23T01:48:27.618Z,0
2019-01-23T01:49:26.165Z,0
2019-01-23T01:50:24.701Z,0
2019-01-23T01:51:23.247Z,0
2019-01-23T01:52:21.812Z,0
2019-01-23T01:53:20.383Z,0
2019-01-23T01:54:18.949Z,0
2019-01-23T01:55:17.758Z,0
2019-01-23T01:56:16.311Z,0
2019-01-23T01:57:14.971Z,0
2019-01-23T01:58:13.643Z,0
2019-01-23T01:59:12.186Z,0
2019-01-23T02:00:10.722Z,0
2019-01-23T02:01:09.453Z,0
2019-01-23T02:02:08.023Z,0
2019-01-23T02:03:06.533Z,0
2019-01-23T02:04:05.086Z,0
2019-01-23T02:05:03.825Z,0
2019-01-23T02:06:02.369Z,0
2019-01-23T02:07:00.915Z,0
2019-01-23T02:07:59.556Z,0
2019-01-23T02:08:58.116Z,0
2019-01-23T02:09:56.669Z,0
2019-01-23T02:10:55.459Z,0
2019-01-23T02:11:54.205Z,0
2019-01-23T02:12:52.726Z,0
2019-01-23T02:13:51.551Z,0
2019-01-23T02:14:50.099Z,0
2019-01-23T02:15:48.711Z,0
2019-01-23T02:16:47.510Z,0
2019-01-23T02:17:46.033Z,0
2019-01-23T02:18:44.564Z,0
2019-01-23T02:19:43.114Z,0
2019-01-23T02:20:41.711Z,0
2019-01-23T02:21:40.262Z,0
2019-01-23T02:22:38.962Z,0
2019-01-23T02:23:37.744Z,0
2019-01-23T02:24:36.494Z,0
2019-01-23T02:25:35.161Z,0
2019-01-23T02:26:33.711Z,0
2019-01-23T02:27:32.270Z,0
2019-01-23T02:28:30.806Z,0
2019-01-23T02:29:29.323Z,0
2019-01-23T02:30:27.870Z,0
2019-01-23T02:31:26.399Z,0
2019-01-23T02:32:24.959Z,0
2019-01-23T02:33:23.494Z,0
2019-01-23T02:34:22.199Z,0
2019-01-23T02:35:20.746Z,0
2019-01-23T02:36:19.558Z,0
2019-01-23T02:37:18.103Z,0
2019-01-23T02:38:16.658Z,0
2019-01-23T02:39:15.392Z,0
2019-01-23T02:40:13.932Z,0
2019-01-23T02:41:12.498Z,0
2019-01-23T02:42:11.041Z,0
2019-01-23T02:43:09.585Z,0
2019-01-23T02:44:08.129Z,0
2019-01-23T02:45:06.668Z,0
2019-01-23T02:46:05.567Z,0
2019-01-23T02:47:04.112Z,0
2019-01-23T02:48:02.825Z,0
2019-01-23T02:49:01.549Z,0
2019-01-23T02:50:00.063Z,0
2019-01-23T02:50:58.627Z,0
2019-01-23T02:51:57.160Z,0
2019-01-23T02:52:55.698Z,0
2019-01-23T02:53:54.234Z,0
2019-01-23T02:54:52.789Z,0
2019-01-23T02:55:51.336Z,0
2019-01-23T02:56:49.862Z,0
2019-01-23T02:57:48.437Z,0
2019-01-23T02:58:46.981Z,0
2019-01-23T02:59:45.830Z,0
2019-01-23T03:00:44.370Z,0
2019-01-23T03:01:43.008Z,0
2019-01-23T03:02:41.734Z,0
2019-01-23T03:03:40.279Z,0
2019-01-23T03:04:38.826Z,0
2019-01-23T03:05:37.423Z,0
2019-01-23T03:06:35.960Z,0
2019-01-23T03:07:34.538Z,0
2019-01-23T03:08:33.076Z,0
2019-01-23T03:09:31.614Z,0
2019-01-23T03:10:30.149Z,0
2019-01-23T03:11:28.691Z,0
2019-01-23T03:12:27.588Z,0
2019-01-23T03:13:26.128Z,0
2019-01-23T03:14:24.652Z,0
2019-01-23T03:15:23.553Z,0
2019-01-23T03:16:22.112Z,0
2019-01-23T03:17:20.654Z,0
2019-01-23T03:18:19.293Z,0
2019-01-23T03:19:18.002Z,0
2019-01-23T03:20:16.498Z,0
2019-01-23T03:21:15.335Z,0
2019-01-23T03:22:13.956Z,0
2019-01-23T03:23:12.502Z,0
2019-01-23T03:24:11.102Z,0
2019-01-23T03:25:09.751Z,0
2019-01-23T03:26:08.358Z,0
2019-01-23T03:27:06.915Z,0
2019-01-23T03:28:05.750Z,0
2019-01-23T03:29:04.298Z,0
2019-01-23T03:30:02.933Z,0
2019-01-23T03:31:01.731Z,0
2019-01-23T03:32:00.263Z,0
2019-01-23T03:32:58.801Z,0
2019-01-23T03:33:57.346Z,0
2019-01-23T03:34:55.878Z,0
2019-01-23T03:35:54.420Z,0
2019-01-23T03:36:52.971Z,0
2019-01-23T03:37:51.522Z,0
2019-01-23T03:38:50.047Z,0
2019-01-23T03:39:49.153Z,0
2019-01-23T03:40:47.091Z,0
2019-01-23T03:41:45.697Z,0
2019-01-23T03:42:44.236Z,0
2019-01-23T03:43:42.777Z,0
2019-01-23T03:44:41.569Z,0
2019-01-23T03:45:40.125Z,0
2019-01-23T03:46:38.696Z,0
2019-01-23T03:47:37.364Z,0
2019-01-23T03:48:36.002Z,0
2019-01-23T03:49:34.545Z,0
2019-01-23T03:50:33.135Z,0
2019-01-23T03:51:31.694Z,0
2019-01-23T03:52:30.240Z,0
2019-01-23T03:53:28.923Z,0
2019-01-23T03:54:27.583Z,0
2019-01-23T03:55:26.110Z,0
2019-01-23T03:56:24.653Z,0
2019-01-23T03:57:23.375Z,0
2019-01-23T03:58:21.960Z,0
2019-01-23T03:59:20.478Z,0
2019-01-23T04:00:19.256Z,0
2019-01-23T04:01:17.790Z,0
2019-01-23T04:02:16.345Z,0
2019-01-23T04:03:14.893Z,0
2019-01-23T04:04:13.453Z,0
2019-01-23T04:05:12.045Z,0
2019-01-23T04:06:10.562Z,0
2019-01-23T04:07:09.563Z,0
2019-01-23T04:08:08.116Z,0
2019-01-23T04:09:06.641Z,0
2019-01-23T04:10:05.430Z,0
2019-01-23T04:11:04.187Z,0
2019-01-23T04:12:02.711Z,0
2019-01-23T04:13:01.644Z,0
2019-01-23T04:14:00.191Z,0
2019-01-23T04:14:58.725Z,0
2019-01-23T04:15:57.519Z,0
2019-01-23T04:16:56.067Z,0
2019-01-23T04:17:54.693Z,0
2019-01-23T04:18:53.333Z,0
2019-01-23T04:19:51.981Z,0
2019-01-23T04:20:50.522Z,0
2019-01-23T04:21:49.255Z,0
2019-01-23T04:22:48.000Z,0
2019-01-23T04:23:46.502Z,0
2019-01-23T04:24:45.143Z,0
2019-01-23T04:25:43.709Z,0
2019-01-23T04:26:42.439Z,0
2019-01-23T04:27:41.058Z,0
2019-01-23T04:28:39.795Z,0
2019-01-23T04:29:39.650Z,0
2019-01-23T04:30:36.922Z,0
2019-01-23T04:31:35.733Z,0
2019-01-23T04:32:34.260Z,0
2019-01-23T04:33:32.826Z,0
2019-01-23T04:34:31.492Z,0
2019-01-23T04:35:30.020Z,0
2019-01-23T04:36:28.577Z,0
2019-01-23T04:37:27.364Z,0
2019-01-23T04:38:26.662Z,0
2019-01-23T04:39:24.528Z,0
2019-01-23T04:40:23.188Z,0
2019-01-23T04:41:21.786Z,0
2019-01-23T04:42:20.326Z,0
2019-01-23T04:43:18.946Z,0
2019-01-23T04:44:17.492Z,0
2019-01-23T04:45:16.065Z,0
2019-01-23T04:46:14.595Z,0
2019-01-23T04:47:13.144Z,0
2019-01-23T04:48:11.682Z,0
2019-01-23T04:49:10.202Z,0
2019-01-23T04:50:08.736Z,0
2019-01-23T04:51:07.376Z,0
2019-01-23T04:52:06.050Z,0
2019-01-23T04:53:04.680Z,0
2019-01-23T04:54:03.372Z,0
2019-01-23T04:55:01.924Z,0
2019-01-23T04:56:00.475Z,0
2019-01-23T04:56:59.171Z,0
2019-01-23T04:57:57.747Z,0
2019-01-23T04:58:56.308Z,0
2019-01-23T04:59:54.828Z,0
2019-01-23T05:00:53.361Z,0
2019-01-23T05:01:52.002Z,0
2019-01-23T05:02:50.719Z,0
2019-01-23T05:03:49.470Z,0
2019-01-23T05:04:48.025Z,0
2019-01-23T05:05:47.231Z,0
2019-01-23T05:06:45.969Z,0
2019-01-23T05:07:44.900Z,0
2019-01-23T05:08:43.435Z,0
2019-01-23T05:09:42.008Z,0
2019-01-23T05:10:40.614Z,0
2019-01-23T05:11:39.599Z,0
2019-01-23T05:12:38.154Z,0
2019-01-23T05:13:36.703Z,0
2019-01-23T05:14:36.269Z,0
2019-01-23T05:15:34.008Z,0
2019-01-23T05:16:32.512Z,0
2019-01-23T05:17:31.034Z,0
2019-01-23T05:18:29.711Z,0
2019-01-23T05:19:29.014Z,0
2019-01-23T05:20:27.567Z,0
2019-01-23T05:21:26.115Z,0
2019-01-23T05:22:24.644Z,0
2019-01-23T05:24:47.848Z,0
2019-01-23T05:25:46.368Z,0
2019-01-23T05:26:44.980Z,0
2019-01-23T05:27:43.554Z,0
2019-01-23T05:28:42.089Z,0
2019-01-23T05:29:40.666Z,0
2019-01-23T05:30:39.211Z,0
2019-01-23T05:31:38.063Z,0
2019-01-23T05:32:36.476Z,0
2019-01-23T05:45:48.518Z,0
2019-01-23T05:46:47.202Z,0
2019-01-23T05:47:45.761Z,0
2019-01-23T05:48:44.305Z,0
2019-01-23T05:49:42.935Z,0
2019-01-23T05:50:41.601Z,0
2019-01-23T05:51:40.147Z,0
2019-01-23T05:52:38.679Z,0
2019-01-23T05:53:37.221Z,0
2019-01-23T05:54:35.787Z,0
2019-01-23T05:55:34.343Z,0
2019-01-23T05:56:32.887Z,0
2019-01-23T05:57:31.734Z,0
2019-01-23T05:58:30.401Z,0
2019-01-23T05:59:28.957Z,0
2019-01-23T06:00:27.811Z,0
2019-01-23T06:01:26.359Z,0
2019-01-23T06:02:24.899Z,0
2019-01-23T06:03:23.420Z,0
2019-01-23T06:04:21.953Z,0
2019-01-23T06:05:20.511Z,0
2019-01-23T06:06:19.076Z,0
2019-01-23T06:07:17.963Z,0
2019-01-23T06:08:16.549Z,0
2019-01-23T06:09:15.352Z,0
2019-01-23T06:10:13.888Z,0
2019-01-23T06:11:12.417Z,0
2019-01-23T06:12:10.994Z,0
2019-01-23T06:13:09.527Z,0
2019-01-23T06:14:08.144Z,0
2019-01-23T06:15:06.678Z,0
2019-01-23T06:16:05.255Z,0
2019-01-23T06:17:03.898Z,0
2019-01-23T06:18:02.572Z,0
2019-01-23T06:19:01.281Z,0
2019-01-23T06:19:59.951Z,0
2019-01-23T06:20:58.509Z,0
2019-01-23T06:21:57.117Z,0
2019-01-23T06:22:55.740Z,0
2019-01-23T06:23:54.276Z,0
2019-01-23T06:24:52.792Z,0
2019-01-23T06:25:51.471Z,0
2019-01-23T06:26:50.108Z,0
2019-01-23T06:27:48.658Z,0
2019-01-23T06:28:47.415Z,0
2019-01-23T06:29:46.096Z,0
2019-01-23T06:30:44.762Z,0
2019-01-23T06:31:43.407Z,0
2019-01-23T06:32:42.030Z,0
2019-01-23T06:33:40.581Z,0
2019-01-23T06:34:39.112Z,0
2019-01-23T06:35:37.915Z,0
2019-01-23T06:36:36.508Z,0
2019-01-23T06:37:35.356Z,0
2019-01-23T06:38:33.895Z,0
2019-01-23T06:39:32.432Z,4
2019-01-23T06:40:30.990Z,4
2019-01-23T06:41:29.536Z,0
2019-01-23T06:42:28.076Z,4
2019-01-23T06:43:26.613Z,4
2019-01-23T06:44:25.143Z,4
2019-01-23T06:45:23.693Z,4
2019-01-23T06:46:22.245Z,8
2019-01-23T06:47:20.777Z,4
2019-01-23T06:48:19.351Z,8
2019-01-23T06:49:18.001Z,8
2019-01-23T06:50:16.540Z,12
2019-01-23T06:51:15.349Z,12
2019-01-23T06:52:14.042Z,12
2019-01-23T06:53:14.068Z,12
2019-01-23T06:54:11.175Z,16
2019-01-23T06:55:09.756Z,20
2019-01-23T06:56:08.308Z,20
2019-01-23T06:57:06.822Z,24
2019-01-23T06:58:05.349Z,24
2019-01-23T06:59:03.870Z,28
2019-01-23T07:00:02.457Z,36
2019-01-23T07:01:01.010Z,40
2019-01-23T07:01:59.840Z,44
2019-01-23T07:02:58.350Z,48
2019-01-23T07:03:56.997Z,48
2019-01-23T07:04:55.921Z,52
2019-01-23T07:05:54.526Z,60
2019-01-23T07:06:53.149Z,64
2019-01-23T07:07:51.793Z,76
2019-01-23T07:10:07.775Z,116
2019-01-23T07:11:06.314Z,128
2019-01-23T07:12:04.970Z,140
2019-01-23T07:13:03.510Z,140
2019-01-23T07:14:02.050Z,156
2019-01-23T07:15:00.606Z,180
2019-01-23T07:15:59.131Z,192
2019-01-23T07:16:57.662Z,204
2019-01-23T07:17:56.189Z,224
2019-01-23T07:18:54.731Z,236
2019-01-23T07:19:53.244Z,248
2019-01-23T07:20:51.786Z,264
2019-01-23T07:21:50.322Z,280
2019-01-23T07:22:48.880Z,296
2019-01-23T07:23:47.726Z,312
2019-01-23T07:24:46.386Z,328
2019-01-23T07:25:44.946Z,352
2019-01-23T07:26:43.770Z,368
2019-01-23T07:27:42.290Z,388
2019-01-23T07:28:40.805Z,404
2019-01-23T07:29:39.335Z,428
2019-01-23T07:30:37.866Z,448
2019-01-23T07:31:36.434Z,460
2019-01-23T07:32:34.973Z,472
2019-01-23T07:33:33.555Z,484
2019-01-23T07:34:32.233Z,500
2019-01-23T07:35:30.771Z,508
2019-01-23T07:36:29.697Z,516
2019-01-23T07:37:28.200Z,520
2019-01-23T07:38:26.765Z,520
2019-01-23T07:39:25.469Z,520
2019-01-23T07:40:24.025Z,532
2019-01-23T07:41:22.542Z,552
2019-01-23T07:42:21.059Z,580
2019-01-23T07:43:19.593Z,604
2019-01-23T07:44:18.111Z,616
2019-01-23T07:45:16.672Z,628
2019-01-23T07:47:57.113Z,656
2019-01-23T07:48:55.818Z,716
2019-01-23T07:49:54.343Z,692
2019-01-23T07:50:53.032Z,720
2019-01-23T07:51:51.583Z,820
2019-01-23T07:52:50.120Z,832
2019-01-23T07:53:48.795Z,856
2019-01-23T07:54:47.785Z,888
2019-01-23T07:55:46.324Z,928
2019-01-23T08:17:20.838Z,1200
2019-01-23T08:18:19.422Z,1196
2019-01-23T08:19:17.969Z,1200
2019-01-23T08:20:16.501Z,1208
2019-01-23T08:21:15.041Z,1228
2019-01-23T08:22:13.556Z,1252
2019-01-23T08:23:12.103Z,1268
2019-01-23T08:24:10.630Z,1272
2019-01-23T08:25:09.650Z,1284
2019-01-23T08:26:08.200Z,1300
2019-01-23T08:27:07.067Z,1324
2019-01-23T08:28:05.579Z,1356
2019-01-23T08:29:04.106Z,1400
2019-01-23T08:30:02.632Z,1424
2019-01-23T08:31:01.262Z,1440
2019-01-23T08:31:59.942Z,1440
2019-01-23T08:32:58.475Z,1440
2019-01-23T08:33:57.182Z,1436
2019-01-23T08:34:55.756Z,1416
2019-01-23T08:35:54.281Z,1404
2019-01-23T08:36:52.801Z,1388
2019-01-23T08:37:51.637Z,1384
2019-01-23T08:38:50.176Z,1388
2019-01-23T08:39:48.709Z,1392
2019-01-23T08:40:47.269Z,1416
2019-01-23T08:41:45.817Z,1468
2019-01-23T08:42:44.347Z,1520
2019-01-23T08:43:42.886Z,1568
2019-01-23T08:44:41.413Z,1628
2019-01-23T08:45:39.978Z,1684
2019-01-23T08:46:38.510Z,1716
2019-01-23T08:47:37.030Z,1756
2019-01-23T08:48:35.897Z,1840
2019-01-23T08:49:34.430Z,1992
2019-01-23T08:50:33.097Z,2188
2019-01-23T08:51:31.862Z,2396
2019-01-23T08:52:30.422Z,2512
2019-01-23T08:53:28.954Z,2536
2019-01-23T08:54:27.580Z,2552
2019-01-23T08:55:26.108Z,2568
2019-01-23T08:56:24.645Z,2520
2019-01-23T08:57:23.630Z,2440
2019-01-23T08:58:22.192Z,2352
2019-01-23T08:59:20.725Z,2280
2019-01-23T09:00:19.475Z,2248
2019-01-23T09:01:18.063Z,2252
2019-01-23T09:02:16.625Z,2232
2019-01-23T09:03:15.150Z,2240
2019-01-23T09:04:13.691Z,2288
2019-01-23T09:05:12.452Z,2320
2019-01-23T09:06:11.255Z,2292
2019-01-23T09:07:10.012Z,2228
2019-01-23T09:08:08.525Z,2192
2019-01-23T09:09:07.184Z,2236
2019-01-23T09:11:50.232Z,2276
2019-01-23T09:12:48.806Z,2224
2019-01-23T09:13:47.770Z,2180
2019-01-23T09:14:46.352Z,2200
2019-01-23T09:15:45.066Z,2284
2019-01-23T09:16:43.652Z,2324
2019-01-23T09:17:42.177Z,2340
2019-01-23T09:18:40.780Z,2332
2019-01-23T09:19:39.328Z,2348
2019-01-23T09:20:37.825Z,2360
2019-01-23T09:21:36.333Z,2340
2019-01-23T09:22:34.908Z,2292
2019-01-23T09:23:33.759Z,2256
2019-01-23T09:24:32.327Z,2260
2019-01-23T09:25:31.037Z,2260
2019-01-23T09:26:29.723Z,2268
2019-01-23T09:27:28.374Z,2304
2019-01-23T09:28:26.940Z,2360
2019-01-23T09:29:25.466Z,2420
2019-01-23T09:30:24.045Z,2460
2019-01-23T09:31:22.674Z,2492
2019-01-23T09:32:21.250Z,2528
2019-01-23T09:33:19.961Z,2552
2019-01-23T09:34:18.495Z,2592
2019-01-23T09:35:17.389Z,2656
2019-01-23T09:36:16.005Z,2736
2019-01-23T09:37:14.815Z,2792
2019-01-23T09:38:13.450Z,2836
2019-01-23T09:39:12.014Z,2832
2019-01-23T09:40:10.553Z,2776
2019-01-23T09:41:09.208Z,2700
2019-01-23T09:42:07.898Z,2644
2019-01-23T09:43:06.471Z,2584
2019-01-23T09:44:05.034Z,2556
2019-01-23T09:45:03.646Z,2556
2019-01-23T09:46:02.194Z,2584
2019-01-23T09:47:00.699Z,2588
2019-01-23T09:47:59.239Z,2516
2019-01-23T09:48:57.996Z,2408
2019-01-23T09:49:56.556Z,2312
2019-01-23T09:52:37.010Z,2112
2019-01-23T09:53:35.670Z,2104
2019-01-23T09:54:34.221Z,2128
2019-01-23T09:55:32.808Z,2156
2019-01-23T09:56:31.935Z,2184
2019-01-23T09:57:30.501Z,2208
2019-01-23T09:58:29.223Z,2204
2019-01-23T09:59:27.837Z,2196
2019-01-23T10:00:26.391Z,2180
2019-01-23T10:01:24.886Z,2188
2019-01-23T10:02:23.485Z,2248
2019-01-23T10:03:22.996Z,2312
2019-01-23T10:04:20.817Z,2328
2019-01-23T10:07:01.221Z,2656
2019-01-23T10:07:59.934Z,2644
2019-01-23T10:08:58.470Z,2600
2019-01-23T10:09:57.051Z,2568
2019-01-23T10:10:55.918Z,2528
2019-01-23T10:11:54.456Z,2516
2019-01-23T10:12:53.078Z,2508
2019-01-23T10:13:51.798Z,2516
2019-01-23T10:14:50.325Z,2516
2019-01-23T10:34:14.659Z,2424
2019-01-23T10:35:13.356Z,2540
2019-01-23T10:36:11.902Z,2660
2019-01-23T10:37:10.451Z,2688
2019-01-23T10:38:08.991Z,2616
2019-01-23T10:39:07.516Z,2540
2019-01-23T10:40:06.071Z,2444
2019-01-23T10:41:04.609Z,2360
2019-01-23T10:42:03.151Z,2332
2019-01-23T10:43:02.122Z,2272
2019-01-23T10:44:00.677Z,2232
2019-01-23T10:44:59.544Z,2192
2019-01-23T10:45:58.069Z,2120
2019-01-23T10:46:56.601Z,2072
2019-01-23T10:47:56.098Z,2096
2019-01-23T10:48:53.659Z,2204
2019-01-23T10:49:52.238Z,2336
2019-01-23T10:50:50.777Z,2408
2019-01-23T10:51:49.314Z,2456
2019-01-23T10:52:47.875Z,2496
2019-01-23T10:53:46.416Z,2552
2019-01-23T10:54:44.971Z,2628
2019-01-23T10:55:43.613Z,2644
2019-01-23T10:56:42.261Z,2632
2019-01-23T10:57:40.830Z,2640
2019-01-23T10:58:39.450Z,2616
2019-01-23T10:59:38.109Z,2572
2019-01-23T11:00:36.680Z,2500
2019-01-23T11:01:35.264Z,2396
2019-01-23T11:02:33.841Z,2304
2019-01-23T11:03:32.396Z,2252
2019-01-23T11:04:31.016Z,2224
2019-01-23T11:05:29.615Z,2184
2019-01-23T11:06:28.234Z,2112
2019-01-23T11:07:26.789Z,2052
2019-01-23T11:08:25.625Z,2040
2019-01-23T11:09:24.298Z,2068
2019-01-23T11:10:22.839Z,2012
2019-01-23T11:11:21.492Z,2008
2019-01-23T11:12:20.021Z,2056
2019-01-23T11:13:18.586Z,2036
2019-01-23T11:14:17.153Z,2004
2019-01-23T11:15:15.677Z,1952
2019-01-23T11:16:14.284Z,1852
2019-01-23T11:17:12.821Z,1808
2019-01-23T11:18:11.888Z,1824
2019-01-23T11:19:10.493Z,1904
2019-01-23T11:20:09.176Z,2020
2019-01-23T11:21:07.687Z,2292
2019-01-23T11:22:06.271Z,2564
2019-01-23T11:23:04.863Z,2516
2019-01-23T11:24:03.709Z,2436
2019-01-23T11:25:02.223Z,2504
2019-01-23T11:26:00.795Z,2568
2019-01-23T11:26:59.312Z,2576
2019-01-23T11:27:57.975Z,2664
2019-01-23T11:28:56.504Z,2684
2019-01-23T11:29:55.268Z,2644
2019-01-23T11:30:53.882Z,2656
2019-01-23T11:31:52.438Z,2660
2019-01-23T11:32:50.991Z,2568
2019-01-23T11:33:49.618Z,2500
2019-01-23T11:36:30.035Z,2784
2019-01-23T11:37:28.593Z,2736
2019-01-23T11:38:27.114Z,2636
2019-01-23T11:39:25.799Z,2584
2019-01-23T11:40:24.317Z,2540
2019-01-23T11:41:22.832Z,2428
2019-01-23T11:42:21.402Z,2380
2019-01-23T11:43:19.952Z,2452
2019-01-23T11:44:18.528Z,2568
2019-01-23T11:45:17.064Z,2512
2019-01-23T11:47:57.587Z,2680
2019-01-23T11:48:56.244Z,2632
2019-01-23T11:49:54.791Z,2652
2019-01-23T11:50:53.456Z,2760
2019-01-23T11:51:52.028Z,2844
2019-01-23T11:52:50.559Z,2904
2019-01-23T11:53:49.089Z,2880
2019-01-23T11:54:47.637Z,2764
2019-01-23T11:55:46.165Z,2588
2019-01-23T11:56:44.700Z,2236
2019-01-23T11:57:43.665Z,2104
2019-01-23T11:58:42.502Z,2068
2019-01-23T11:59:41.021Z,1984
2019-01-23T12:00:39.583Z,2036
2019-01-23T12:01:38.111Z,2404
2019-01-23T12:02:36.700Z,2680
2019-01-23T12:03:35.301Z,2792
2019-01-23T12:04:33.920Z,2756
2019-01-23T12:07:16.561Z,2292
2019-01-23T12:08:15.356Z,2224
2019-01-23T12:09:14.120Z,2144
2019-01-23T12:11:54.167Z,2044
2019-01-23T12:12:52.719Z,1972
2019-01-23T12:13:51.709Z,1812
2019-01-23T12:14:50.243Z,1724
2019-01-23T12:15:48.819Z,1684
2019-01-23T12:16:47.781Z,1708
2019-01-23T12:19:10.532Z,2160
2019-01-23T12:20:09.066Z,2140
2019-01-23T12:21:07.642Z,1992
2019-01-23T12:32:49.016Z,1964
2019-01-23T12:33:47.816Z,2000
2019-01-23T12:34:46.406Z,2044
2019-01-23T12:35:44.970Z,2076
2019-01-23T12:36:43.840Z,2132
2019-01-23T12:37:42.385Z,2124
2019-01-23T12:38:40.940Z,2012
2019-01-23T12:39:39.480Z,1936
2019-01-23T12:40:38.152Z,1888
2019-01-23T12:41:36.711Z,1876
2019-01-23T12:42:35.551Z,1828
2019-01-23T12:43:34.247Z,1784
2019-01-23T12:44:32.822Z,1732
2019-01-23T12:45:31.406Z,1704
2019-01-23T12:46:30.056Z,1712
2019-01-23T12:47:28.613Z,1704
2019-01-23T12:48:27.178Z,1724
2019-01-23T12:49:25.852Z,1744
2019-01-23T13:01:12.207Z,1980
2019-01-23T13:02:10.745Z,1960
2019-01-23T13:03:09.615Z,1980
2019-01-23T13:04:08.200Z,1964
2019-01-23T13:05:06.725Z,1940
2019-01-23T13:06:05.272Z,1932
2019-01-23T13:07:03.907Z,1960
2019-01-23T13:08:02.465Z,1988
2019-01-23T13:09:01.002Z,1984
2019-01-23T13:09:59.839Z,1928
2019-01-23T13:10:58.405Z,1876
2019-01-23T13:11:56.970Z,1828
2019-01-23T13:12:55.809Z,1808
2019-01-23T13:13:54.371Z,1836
2019-01-23T13:14:52.910Z,1848
2019-01-23T13:17:34.048Z,1864
2019-01-23T13:21:15.244Z,1796
2019-01-23T13:22:13.872Z,1792
2019-01-23T13:23:13.444Z,1792
2019-01-23T13:24:11.010Z,1796
2019-01-23T13:25:09.879Z,1804
2019-01-23T13:26:08.453Z,1800
2019-01-23T13:27:07.135Z,1768
2019-01-23T13:28:05.745Z,1748
2019-01-23T13:29:04.315Z,1724
2019-01-23T13:30:02.878Z,1700
2019-01-23T13:31:01.409Z,1692
2019-01-23T13:31:59.976Z,1696
2019-01-23T13:32:58.556Z,1688
2019-01-23T13:33:57.095Z,1684
2019-01-23T13:34:55.948Z,1696
2019-01-23T13:35:54.501Z,1712
2019-01-23T13:36:53.109Z,1740
2019-01-23T13:37:51.916Z,1764
2019-01-23T13:38:50.695Z,1796
2019-01-23T13:39:49.605Z,1820
2019-01-23T13:40:48.260Z,1836
2019-01-23T13:41:46.818Z,1824
2019-01-23T13:42:45.431Z,1792
2019-01-23T13:43:44.060Z,1752
2019-01-23T13:44:42.607Z,1712
2019-01-23T13:45:41.817Z,1684
2019-01-23T13:46:39.658Z,1652
2019-01-23T13:47:38.186Z,1620
2019-01-23T13:48:36.758Z,1596
2019-01-23T13:51:11.916Z,1584
2019-01-23T13:52:10.463Z,1572
2019-01-23T13:53:09.025Z,1552
2019-01-23T13:54:07.782Z,1524
2019-01-23T13:55:06.396Z,1488
2019-01-23T13:56:04.910Z,1440
2019-01-23T13:57:03.703Z,1420
2019-01-23T13:58:02.244Z,1416
2019-01-23T13:59:00.766Z,1392
2019-01-23T13:59:59.326Z,1364
2019-01-23T14:00:57.875Z,1308
2019-01-23T14:01:56.620Z,1244
2019-01-23T14:02:54.961Z,1204
2019-01-23T14:03:53.492Z,1176
2019-01-23T14:04:52.021Z,1164
2019-01-23T14:05:50.542Z,1156
2019-01-23T14:06:49.076Z,1136
2019-01-23T14:07:47.620Z,1108
2019-01-23T14:08:46.220Z,1084
2019-01-23T14:09:44.738Z,1056
2019-01-23T14:10:43.325Z,1020
2019-01-23T14:11:42.068Z,984
2019-01-23T14:12:40.597Z,956
2019-01-23T14:13:39.300Z,936
2019-01-23T14:14:38.072Z,920
2019-01-23T14:15:36.644Z,912
2019-01-23T14:16:35.187Z,916
2019-01-23T14:17:33.889Z,924
2019-01-23T14:18:32.422Z,932
2019-01-23T14:19:31.707Z,940
2019-01-23T14:20:30.295Z,944
2019-01-23T14:21:30.611Z,936
2019-01-23T14:22:28.269Z,916
2019-01-23T14:23:26.821Z,888
2019-01-23T14:24:25.658Z,872
2019-01-23T14:25:24.256Z,864
2019-01-23T14:26:22.801Z,868
2019-01-23T14:27:21.613Z,880
2019-01-23T14:28:20.179Z,876
2019-01-23T14:29:18.701Z,868
2019-01-23T14:30:17.293Z,864
2019-01-23T14:31:15.850Z,860
2019-01-23T14:32:14.385Z,852
2019-01-23T14:33:12.932Z,840
2019-01-23T14:34:11.482Z,824
2019-01-23T14:35:10.012Z,796
2019-01-23T14:36:08.523Z,760
2019-01-23T14:37:07.086Z,720
2019-01-23T14:38:05.934Z,676
2019-01-23T14:39:04.471Z,640
2019-01-23T14:40:03.132Z,616
2019-01-23T14:41:01.942Z,592
2019-01-23T14:42:00.456Z,568
2019-01-23T14:42:59.013Z,548
2019-01-23T14:43:57.557Z,524
2019-01-23T14:44:56.211Z,512
2019-01-23T14:45:54.754Z,496
2019-01-23T14:46:53.303Z,488
2019-01-23T14:47:52.034Z,476
2019-01-23T14:48:50.596Z,476
2019-01-23T14:49:49.243Z,464
2019-01-23T14:50:48.017Z,452
2019-01-23T14:51:46.643Z,456
2019-01-23T14:52:45.154Z,448
2019-01-23T14:53:43.720Z,452
2019-01-23T14:54:42.247Z,452
2019-01-23T14:55:40.749Z,444
2019-01-23T14:56:39.425Z,440
2019-01-23T14:57:38.157Z,440
2019-01-23T14:58:36.681Z,448
2019-01-23T14:59:35.218Z,448
2019-01-23T15:00:33.963Z,432
2019-01-23T15:01:32.750Z,408
2019-01-23T15:02:31.362Z,400
2019-01-23T15:03:30.020Z,388
2019-01-23T15:04:28.577Z,372
2019-01-23T15:05:27.133Z,356
2019-01-23T15:06:25.955Z,344
2019-01-23T15:07:24.506Z,336
2019-01-23T15:08:23.049Z,328
2019-01-23T15:09:21.926Z,320
2019-01-23T15:13:00.659Z,280
2019-01-23T15:13:59.242Z,276
2019-01-23T15:14:58.090Z,264
2019-01-23T15:15:56.624Z,248
2019-01-23T15:16:55.150Z,240
2019-01-23T15:17:53.958Z,232
2019-01-23T15:18:52.596Z,224
2019-01-23T15:19:51.227Z,224
2019-01-23T15:20:50.037Z,220
2019-01-23T15:21:48.716Z,216
2019-01-23T15:22:47.206Z,212
2019-01-23T15:23:45.966Z,204
2019-01-23T15:24:44.613Z,200
2019-01-23T15:25:43.202Z,200